sensor_id;sensor_type;location;lat;lon;timestamp;temperature;humidity
10702;DHT22;5402;50.004;8.246;2023-04-03T00:00:08;5.10;99.90
10702;DHT22;5402;50.004;8.246;2023-04-03T00:02:35;5.00;99.90
10702;DHT22;5402;50.004;8.246;2023-04-03T00:05:02;5.10;99.90
10702;DHT22;5402;50.004;8.246;2023-04-03T00:07:31;5.10;99.90
10702;DHT22;5402;50.004;8.246;2023-04-03T00:09:58;5.10;99.90
10702;DHT22;5402;50.004;8.246;2023-04-03T00:12:24;5.10;99.90
10702;DHT22;5402;50.004;8.246;2023-04-03T00:14:51;5.20;99.90
10702;DHT22;5402;50.004;8.246;2023-04-03T00:17:18;5.20;99.90
10702;DHT22;5402;50.004;8.246;2023-04-03T00:19:44;5.20;99.90
10702;DHT22;5402;50.004;8.246;2023-04-03T00:22:11;5.10;99.90
10702;DHT22;5402;50.004;8.246;2023-04-03T00:24:39;5.20;99.90
10702;DHT22;5402;50.004;8.246;2023-04-03T00:27:07;5.20;99.90
10702;DHT22;5402;50.004;8.246;2023-04-03T00:29:33;5.20;99.90
10702;DHT22;5402;50.004;8.246;2023-04-03T00:32:00;5.20;99.90
10702;DHT22;5402;50.004;8.246;2023-04-03T00:34:27;5.20;99.90
10702;DHT22;5402;50.004;8.246;2023-04-03T00:36:53;5.20;99.90
10702;DHT22;5402;50.004;8.246;2023-04-03T00:39:20;5.10;99.90
10702;DHT22;5402;50.004;8.246;2023-04-03T00:41:48;5.20;99.90
10702;DHT22;5402;50.004;8.246;2023-04-03T00:44:20;5.10;99.90
10702;DHT22;5402;50.004;8.246;2023-04-03T00:46:47;5.20;99.90
10702;DHT22;5402;50.004;8.246;2023-04-03T00:49:15;5.20;99.90
10702;DHT22;5402;50.004;8.246;2023-04-03T00:51:42;5.20;99.90
10702;DHT22;5402;50.004;8.246;2023-04-03T00:54:09;5.20;99.90
10702;DHT22;5402;50.004;8.246;2023-04-03T00:56:36;5.20;99.90
10702;DHT22;5402;50.004;8.246;2023-04-03T00:59:08;5.20;99.90
10702;DHT22;5402;50.004;8.246;2023-04-03T01:01:37;5.20;99.90
10702;DHT22;5402;50.004;8.246;2023-04-03T01:04:05;5.20;99.90
10702;DHT22;5402;50.004;8.246;2023-04-03T01:06:35;5.20;99.90
10702;DHT22;5402;50.004;8.246;2023-04-03T01:09:03;5.20;99.90
10702;DHT22;5402;50.004;8.246;2023-04-03T01:11:30;5.20;99.90
10702;DHT22;5402;50.004;8.246;2023-04-03T01:13:57;5.30;99.90
10702;DHT22;5402;50.004;8.246;2023-04-03T01:16:25;5.20;99.90
10702;DHT22;5402;50.004;8.246;2023-04-03T01:18:53;5.20;99.90
10702;DHT22;5402;50.004;8.246;2023-04-03T01:21:55;5.30;99.90
10702;DHT22;5402;50.004;8.246;2023-04-03T01:24:32;5.30;99.90
10702;DHT22;5402;50.004;8.246;2023-04-03T01:27:02;5.30;99.90
10702;DHT22;5402;50.004;8.246;2023-04-03T01:29:29;5.30;99.90
10702;DHT22;5402;50.004;8.246;2023-04-03T01:31:58;5.30;99.90
10702;DHT22;5402;50.004;8.246;2023-04-03T01:34:26;5.30;99.90
10702;DHT22;5402;50.004;8.246;2023-04-03T01:36:53;5.30;99.90
10702;DHT22;5402;50.004;8.246;2023-04-03T01:39:20;5.30;99.90
10702;DHT22;5402;50.004;8.246;2023-04-03T01:41:47;5.30;99.90
10702;DHT22;5402;50.004;8.246;2023-04-03T01:44:14;5.30;99.90
10702;DHT22;5402;50.004;8.246;2023-04-03T01:46:41;5.30;99.90
10702;DHT22;5402;50.004;8.246;2023-04-03T01:49:09;5.30;99.90
10702;DHT22;5402;50.004;8.246;2023-04-03T01:51:36;5.30;99.90
10702;DHT22;5402;50.004;8.246;2023-04-03T01:54:03;5.30;99.90
10702;DHT22;5402;50.004;8.246;2023-04-03T01:56:30;5.30;99.90
10702;DHT22;5402;50.004;8.246;2023-04-03T01:58:57;5.30;99.90
10702;DHT22;5402;50.004;8.246;2023-04-03T02:01:24;5.30;99.90
10702;DHT22;5402;50.004;8.246;2023-04-03T02:03:51;5.30;99.90
10702;DHT22;5402;50.004;8.246;2023-04-03T02:06:19;5.30;99.90
10702;DHT22;5402;50.004;8.246;2023-04-03T02:08:46;5.30;99.90
10702;DHT22;5402;50.004;8.246;2023-04-03T02:11:13;5.30;99.90
10702;DHT22;5402;50.004;8.246;2023-04-03T02:13:39;5.30;99.90
10702;DHT22;5402;50.004;8.246;2023-04-03T02:16:07;5.30;99.90
10702;DHT22;5402;50.004;8.246;2023-04-03T02:18:35;5.30;99.90
10702;DHT22;5402;50.004;8.246;2023-04-03T02:21:02;5.30;99.90
10702;DHT22;5402;50.004;8.246;2023-04-03T02:23:30;5.30;99.90
10702;DHT22;5402;50.004;8.246;2023-04-03T02:26:05;5.30;99.90
10702;DHT22;5402;50.004;8.246;2023-04-03T02:28:33;5.30;99.90
10702;DHT22;5402;50.004;8.246;2023-04-03T02:31:00;5.30;99.90
10702;DHT22;5402;50.004;8.246;2023-04-03T02:33:27;5.30;99.90
10702;DHT22;5402;50.004;8.246;2023-04-03T02:35:54;5.30;99.90
10702;DHT22;5402;50.004;8.246;2023-04-03T02:38:21;5.30;99.90
10702;DHT22;5402;50.004;8.246;2023-04-03T02:40:49;5.30;99.90
10702;DHT22;5402;50.004;8.246;2023-04-03T02:43:16;5.30;99.90
10702;DHT22;5402;50.004;8.246;2023-04-03T02:45:43;5.30;99.90
10702;DHT22;5402;50.004;8.246;2023-04-03T02:48:09;5.30;99.90
10702;DHT22;5402;50.004;8.246;2023-04-03T02:50:37;5.20;99.90
10702;DHT22;5402;50.004;8.246;2023-04-03T02:53:04;5.20;99.90
10702;DHT22;5402;50.004;8.246;2023-04-03T02:55:30;5.30;99.90
10702;DHT22;5402;50.004;8.246;2023-04-03T02:57:58;5.30;99.90
10702;DHT22;5402;50.004;8.246;2023-04-03T03:00:25;5.30;99.90
10702;DHT22;5402;50.004;8.246;2023-04-03T03:02:52;5.30;99.90
10702;DHT22;5402;50.004;8.246;2023-04-03T03:05:19;5.30;99.90
10702;DHT22;5402;50.004;8.246;2023-04-03T03:07:45;5.30;99.90
10702;DHT22;5402;50.004;8.246;2023-04-03T03:10:12;5.30;99.90
10702;DHT22;5402;50.004;8.246;2023-04-03T03:12:39;5.30;99.90
10702;DHT22;5402;50.004;8.246;2023-04-03T03:15:08;5.30;99.90
10702;DHT22;5402;50.004;8.246;2023-04-03T03:17:34;5.30;99.90
10702;DHT22;5402;50.004;8.246;2023-04-03T03:20:02;5.20;99.90
10702;DHT22;5402;50.004;8.246;2023-04-03T03:22:29;5.20;99.90
10702;DHT22;5402;50.004;8.246;2023-04-03T03:24:55;5.30;99.90
10702;DHT22;5402;50.004;8.246;2023-04-03T03:27:22;5.30;99.90
10702;DHT22;5402;50.004;8.246;2023-04-03T03:29:49;5.30;99.90
10702;DHT22;5402;50.004;8.246;2023-04-03T03:32:17;5.20;99.90
10702;DHT22;5402;50.004;8.246;2023-04-03T03:34:44;5.10;99.90
10702;DHT22;5402;50.004;8.246;2023-04-03T03:37:11;5.10;99.90
10702;DHT22;5402;50.004;8.246;2023-04-03T03:39:38;5.10;99.90
10702;DHT22;5402;50.004;8.246;2023-04-03T03:42:05;5.00;99.90
10702;DHT22;5402;50.004;8.246;2023-04-03T03:44:31;5.00;99.90
10702;DHT22;5402;50.004;8.246;2023-04-03T03:46:58;5.00;99.90
10702;DHT22;5402;50.004;8.246;2023-04-03T03:49:26;5.00;99.90
10702;DHT22;5402;50.004;8.246;2023-04-03T03:51:53;5.10;99.90
10702;DHT22;5402;50.004;8.246;2023-04-03T03:54:19;5.10;99.90
10702;DHT22;5402;50.004;8.246;2023-04-03T03:56:47;5.10;99.90
10702;DHT22;5402;50.004;8.246;2023-04-03T03:59:14;5.00;99.90
10702;DHT22;5402;50.004;8.246;2023-04-03T04:01:40;4.90;99.90
10702;DHT22;5402;50.004;8.246;2023-04-03T04:04:07;4.90;99.90
10702;DHT22;5402;50.004;8.246;2023-04-03T04:06:35;4.90;99.90
10702;DHT22;5402;50.004;8.246;2023-04-03T04:09:02;4.80;99.90
10702;DHT22;5402;50.004;8.246;2023-04-03T04:11:28;4.80;99.90
10702;DHT22;5402;50.004;8.246;2023-04-03T04:13:55;4.70;99.90
10702;DHT22;5402;50.004;8.246;2023-04-03T04:16:22;4.70;99.90
10702;DHT22;5402;50.004;8.246;2023-04-03T04:18:49;4.70;99.90
10702;DHT22;5402;50.004;8.246;2023-04-03T04:21:15;4.60;99.90
10702;DHT22;5402;50.004;8.246;2023-04-03T04:23:43;4.60;99.90
10702;DHT22;5402;50.004;8.246;2023-04-03T04:26:10;4.60;99.90
10702;DHT22;5402;50.004;8.246;2023-04-03T04:28:37;4.60;99.90
10702;DHT22;5402;50.004;8.246;2023-04-03T04:31:04;4.70;99.90
10702;DHT22;5402;50.004;8.246;2023-04-03T04:33:30;4.70;99.90
10702;DHT22;5402;50.004;8.246;2023-04-03T04:35:58;4.70;99.90
10702;DHT22;5402;50.004;8.246;2023-04-03T04:38:24;4.90;99.90
10702;DHT22;5402;50.004;8.246;2023-04-03T04:40:52;4.70;99.90
10702;DHT22;5402;50.004;8.246;2023-04-03T04:43:19;4.70;99.90
10702;DHT22;5402;50.004;8.246;2023-04-03T04:45:47;4.60;99.90
10702;DHT22;5402;50.004;8.246;2023-04-03T04:48:14;4.50;99.90
10702;DHT22;5402;50.004;8.246;2023-04-03T04:50:40;4.50;99.90
10702;DHT22;5402;50.004;8.246;2023-04-03T04:53:07;4.30;99.90
10702;DHT22;5402;50.004;8.246;2023-04-03T04:55:34;4.20;99.90
10702;DHT22;5402;50.004;8.246;2023-04-03T04:58:02;4.20;99.90
10702;DHT22;5402;50.004;8.246;2023-04-03T05:00:29;4.10;99.90
10702;DHT22;5402;50.004;8.246;2023-04-03T05:02:55;4.20;99.90
10702;DHT22;5402;50.004;8.246;2023-04-03T05:05:22;4.10;99.90
10702;DHT22;5402;50.004;8.246;2023-04-03T05:07:49;4.00;99.90
10702;DHT22;5402;50.004;8.246;2023-04-03T05:10:16;4.10;99.90
10702;DHT22;5402;50.004;8.246;2023-04-03T05:12:42;4.00;99.90
10702;DHT22;5402;50.004;8.246;2023-04-03T05:15:11;3.90;99.90
10702;DHT22;5402;50.004;8.246;2023-04-03T05:17:38;3.90;99.90
10702;DHT22;5402;50.004;8.246;2023-04-03T05:20:06;3.90;99.90
10702;DHT22;5402;50.004;8.246;2023-04-03T05:22:33;3.80;99.90
10702;DHT22;5402;50.004;8.246;2023-04-03T05:24:59;3.80;99.90
10702;DHT22;5402;50.004;8.246;2023-04-03T05:27:26;3.80;99.90
10702;DHT22;5402;50.004;8.246;2023-04-03T05:29:54;3.80;99.90
10702;DHT22;5402;50.004;8.246;2023-04-03T05:32:23;3.80;99.90
10702;DHT22;5402;50.004;8.246;2023-04-03T05:34:50;3.70;99.90
10702;DHT22;5402;50.004;8.246;2023-04-03T05:37:18;3.80;99.90
10702;DHT22;5402;50.004;8.246;2023-04-03T05:39:45;3.80;99.90
10702;DHT22;5402;50.004;8.246;2023-04-03T05:42:12;3.80;99.90
10702;DHT22;5402;50.004;8.246;2023-04-03T05:44:39;3.70;99.90
10702;DHT22;5402;50.004;8.246;2023-04-03T05:47:06;3.70;99.90
10702;DHT22;5402;50.004;8.246;2023-04-03T05:49:34;3.70;99.90
10702;DHT22;5402;50.004;8.246;2023-04-03T05:52:01;3.70;99.90
10702;DHT22;5402;50.004;8.246;2023-04-03T05:54:30;3.80;99.90
10702;DHT22;5402;50.004;8.246;2023-04-03T05:56:57;3.80;99.90
10702;DHT22;5402;50.004;8.246;2023-04-03T05:59:23;3.80;99.90
10702;DHT22;5402;50.004;8.246;2023-04-03T06:01:50;3.80;99.90
10702;DHT22;5402;50.004;8.246;2023-04-03T06:04:17;3.90;99.90
10702;DHT22;5402;50.004;8.246;2023-04-03T06:06:57;3.80;99.90
10702;DHT22;5402;50.004;8.246;2023-04-03T06:09:25;3.90;99.90
10702;DHT22;5402;50.004;8.246;2023-04-03T06:11:54;4.00;99.90
10702;DHT22;5402;50.004;8.246;2023-04-03T06:14:21;4.00;99.90
10702;DHT22;5402;50.004;8.246;2023-04-03T06:16:48;4.10;99.90
10702;DHT22;5402;50.004;8.246;2023-04-03T06:19:15;4.10;99.90
10702;DHT22;5402;50.004;8.246;2023-04-03T06:21:41;4.10;99.90
10702;DHT22;5402;50.004;8.246;2023-04-03T06:24:13;4.10;99.90
10702;DHT22;5402;50.004;8.246;2023-04-03T06:26:41;4.10;99.90
10702;DHT22;5402;50.004;8.246;2023-04-03T06:29:08;4.00;99.90
10702;DHT22;5402;50.004;8.246;2023-04-03T06:31:35;4.30;99.90
10702;DHT22;5402;50.004;8.246;2023-04-03T06:34:02;4.20;99.90
10702;DHT22;5402;50.004;8.246;2023-04-03T06:36:29;4.20;99.90
10702;DHT22;5402;50.004;8.246;2023-04-03T06:38:57;4.30;99.90
10702;DHT22;5402;50.004;8.246;2023-04-03T06:41:25;4.30;99.90
10702;DHT22;5402;50.004;8.246;2023-04-03T06:43:53;4.40;99.90
10702;DHT22;5402;50.004;8.246;2023-04-03T06:46:22;4.50;99.90
10702;DHT22;5402;50.004;8.246;2023-04-03T06:48:49;4.50;99.90
10702;DHT22;5402;50.004;8.246;2023-04-03T06:51:20;4.60;99.90
10702;DHT22;5402;50.004;8.246;2023-04-03T06:53:48;4.50;99.90
10702;DHT22;5402;50.004;8.246;2023-04-03T06:56:16;4.50;99.90
10702;DHT22;5402;50.004;8.246;2023-04-03T06:58:44;4.40;99.90
10702;DHT22;5402;50.004;8.246;2023-04-03T07:01:13;4.40;99.90
10702;DHT22;5402;50.004;8.246;2023-04-03T07:03:40;4.50;99.90
10702;DHT22;5402;50.004;8.246;2023-04-03T07:06:09;4.50;99.90
10702;DHT22;5402;50.004;8.246;2023-04-03T07:08:37;4.50;99.90
10702;DHT22;5402;50.004;8.246;2023-04-03T07:11:05;4.50;99.90
10702;DHT22;5402;50.004;8.246;2023-04-03T07:13:32;4.70;99.90
10702;DHT22;5402;50.004;8.246;2023-04-03T07:16:01;4.70;99.90
10702;DHT22;5402;50.004;8.246;2023-04-03T07:18:29;4.70;99.90
10702;DHT22;5402;50.004;8.246;2023-04-03T07:20:56;4.80;99.90
10702;DHT22;5402;50.004;8.246;2023-04-03T07:23:24;4.80;99.90
10702;DHT22;5402;50.004;8.246;2023-04-03T07:25:52;4.90;99.90
10702;DHT22;5402;50.004;8.246;2023-04-03T07:28:19;4.90;99.90
10702;DHT22;5402;50.004;8.246;2023-04-03T07:30:49;4.90;99.90
10702;DHT22;5402;50.004;8.246;2023-04-03T07:33:19;4.90;99.90
10702;DHT22;5402;50.004;8.246;2023-04-03T07:35:46;5.00;99.90
10702;DHT22;5402;50.004;8.246;2023-04-03T07:38:13;4.90;99.90
10702;DHT22;5402;50.004;8.246;2023-04-03T07:40:45;4.90;99.90
10702;DHT22;5402;50.004;8.246;2023-04-03T07:43:12;5.00;99.90
10702;DHT22;5402;50.004;8.246;2023-04-03T07:45:39;5.10;99.90
10702;DHT22;5402;50.004;8.246;2023-04-03T07:48:05;5.20;99.90
10702;DHT22;5402;50.004;8.246;2023-04-03T07:50:34;5.30;99.90
10702;DHT22;5402;50.004;8.246;2023-04-03T07:53:01;5.30;99.90
10702;DHT22;5402;50.004;8.246;2023-04-03T07:55:28;5.40;99.90
10702;DHT22;5402;50.004;8.246;2023-04-03T07:57:55;5.60;99.90
10702;DHT22;5402;50.004;8.246;2023-04-03T08:00:22;5.80;99.90
10702;DHT22;5402;50.004;8.246;2023-04-03T08:02:48;6.30;99.90
10702;DHT22;5402;50.004;8.246;2023-04-03T08:05:17;7.70;99.90
10702;DHT22;5402;50.004;8.246;2023-04-03T08:07:45;9.90;99.90
10702;DHT22;5402;50.004;8.246;2023-04-03T08:10:13;10.80;99.90
10702;DHT22;5402;50.004;8.246;2023-04-03T08:12:40;10.40;99.90
10702;DHT22;5402;50.004;8.246;2023-04-03T08:15:08;9.40;99.90
10702;DHT22;5402;50.004;8.246;2023-04-03T08:17:35;8.40;99.90
10702;DHT22;5402;50.004;8.246;2023-04-03T08:20:02;7.70;99.90
10702;DHT22;5402;50.004;8.246;2023-04-03T08:22:29;7.30;99.90
10702;DHT22;5402;50.004;8.246;2023-04-03T08:24:58;7.00;99.90
10702;DHT22;5402;50.004;8.246;2023-04-03T08:27:25;6.80;99.90
10702;DHT22;5402;50.004;8.246;2023-04-03T08:29:52;6.80;99.90
10702;DHT22;5402;50.004;8.246;2023-04-03T08:32:19;6.80;99.90
10702;DHT22;5402;50.004;8.246;2023-04-03T08:34:46;6.60;99.90
10702;DHT22;5402;50.004;8.246;2023-04-03T08:37:13;6.70;99.90
10702;DHT22;5402;50.004;8.246;2023-04-03T08:39:41;6.90;99.90
10702;DHT22;5402;50.004;8.246;2023-04-03T08:42:16;7.00;99.90
10702;DHT22;5402;50.004;8.246;2023-04-03T08:44:49;7.10;99.90
10702;DHT22;5402;50.004;8.246;2023-04-03T08:47:21;7.20;99.90
10702;DHT22;5402;50.004;8.246;2023-04-03T08:49:52;7.10;99.90
10702;DHT22;5402;50.004;8.246;2023-04-03T08:52:24;7.10;99.90
10702;DHT22;5402;50.004;8.246;2023-04-03T08:54:59;7.10;99.90
10702;DHT22;5402;50.004;8.246;2023-04-03T08:57:31;6.70;99.90
10702;DHT22;5402;50.004;8.246;2023-04-03T09:00:03;6.90;99.90
10702;DHT22;5402;50.004;8.246;2023-04-03T09:02:34;7.20;99.90
10702;DHT22;5402;50.004;8.246;2023-04-03T09:05:11;7.20;99.90
10702;DHT22;5402;50.004;8.246;2023-04-03T09:07:43;7.20;99.90
10702;DHT22;5402;50.004;8.246;2023-04-03T09:10:13;6.80;99.90
10702;DHT22;5402;50.004;8.246;2023-04-03T09:12:46;6.70;99.90
10702;DHT22;5402;50.004;8.246;2023-04-03T09:15:18;6.90;99.90
10702;DHT22;5402;50.004;8.246;2023-04-03T09:17:53;7.10;99.90
10702;DHT22;5402;50.004;8.246;2023-04-03T09:20:25;7.20;99.90
10702;DHT22;5402;50.004;8.246;2023-04-03T09:22:53;7.60;99.90
10702;DHT22;5402;50.004;8.246;2023-04-03T09:25:22;7.60;99.90
10702;DHT22;5402;50.004;8.246;2023-04-03T09:27:50;7.70;99.90
10702;DHT22;5402;50.004;8.246;2023-04-03T09:30:20;7.90;99.90
10702;DHT22;5402;50.004;8.246;2023-04-03T09:32:49;8.00;99.90
10702;DHT22;5402;50.004;8.246;2023-04-03T09:35:19;7.70;99.90
10702;DHT22;5402;50.004;8.246;2023-04-03T09:37:48;7.50;99.90
10702;DHT22;5402;50.004;8.246;2023-04-03T09:40:34;7.80;99.90
10702;DHT22;5402;50.004;8.246;2023-04-03T09:43:25;7.90;99.90
10702;DHT22;5402;50.004;8.246;2023-04-03T09:45:53;7.70;99.90
10702;DHT22;5402;50.004;8.246;2023-04-03T09:48:21;7.70;99.90
10702;DHT22;5402;50.004;8.246;2023-04-03T09:51:00;7.30;99.90
10702;DHT22;5402;50.004;8.246;2023-04-03T09:53:34;7.30;99.90
10702;DHT22;5402;50.004;8.246;2023-04-03T09:56:04;6.90;99.90
10702;DHT22;5402;50.004;8.246;2023-04-03T09:58:38;6.40;99.90
10702;DHT22;5402;50.004;8.246;2023-04-03T10:01:06;6.60;99.90
10702;DHT22;5402;50.004;8.246;2023-04-03T10:03:45;6.40;99.90
10702;DHT22;5402;50.004;8.246;2023-04-03T10:06:23;6.30;99.90
10702;DHT22;5402;50.004;8.246;2023-04-03T10:08:59;6.40;99.90
10702;DHT22;5402;50.004;8.246;2023-04-03T10:11:26;6.40;99.90
10702;DHT22;5402;50.004;8.246;2023-04-03T10:13:55;6.40;99.90
10702;DHT22;5402;50.004;8.246;2023-04-03T10:16:27;6.50;99.90
10702;DHT22;5402;50.004;8.246;2023-04-03T10:21:49;6.60;99.90
10702;DHT22;5402;50.004;8.246;2023-04-03T10:24:23;6.70;99.90
10702;DHT22;5402;50.004;8.246;2023-04-03T10:26:57;6.60;99.90
10702;DHT22;5402;50.004;8.246;2023-04-03T10:29:40;6.70;99.90
10702;DHT22;5402;50.004;8.246;2023-04-03T10:32:26;6.90;99.90
10702;DHT22;5402;50.004;8.246;2023-04-03T10:35:02;7.00;99.90
10702;DHT22;5402;50.004;8.246;2023-04-03T10:37:46;7.10;99.90
10702;DHT22;5402;50.004;8.246;2023-04-03T10:40:24;7.10;99.90
10702;DHT22;5402;50.004;8.246;2023-04-03T10:46:54;7.70;99.90
10702;DHT22;5402;50.004;8.246;2023-04-03T10:49:34;7.50;99.90
10702;DHT22;5402;50.004;8.246;2023-04-03T10:52:14;7.60;99.90
10702;DHT22;5402;50.004;8.246;2023-04-03T10:54:46;7.70;99.90
10702;DHT22;5402;50.004;8.246;2023-04-03T10:57:16;7.60;99.90
10702;DHT22;5402;50.004;8.246;2023-04-03T10:59:45;7.60;99.90
10702;DHT22;5402;50.004;8.246;2023-04-03T11:02:18;7.40;99.90
10702;DHT22;5402;50.004;8.246;2023-04-03T11:04:53;7.10;99.90
10702;DHT22;5402;50.004;8.246;2023-04-03T11:07:21;7.40;99.90
10702;DHT22;5402;50.004;8.246;2023-04-03T11:09:52;7.50;99.90
10702;DHT22;5402;50.004;8.246;2023-04-03T11:12:24;7.70;99.90
10702;DHT22;5402;50.004;8.246;2023-04-03T11:14:53;7.70;99.90
10702;DHT22;5402;50.004;8.246;2023-04-03T11:17:28;7.40;99.90
10702;DHT22;5402;50.004;8.246;2023-04-03T11:20:03;7.30;99.90
10702;DHT22;5402;50.004;8.246;2023-04-03T11:22:34;7.30;99.90
10702;DHT22;5402;50.004;8.246;2023-04-03T11:25:06;7.40;99.90
10702;DHT22;5402;50.004;8.246;2023-04-03T11:27:43;7.40;99.90
10702;DHT22;5402;50.004;8.246;2023-04-03T11:30:17;7.50;99.90
10702;DHT22;5402;50.004;8.246;2023-04-03T11:33:00;7.60;99.90
10702;DHT22;5402;50.004;8.246;2023-04-03T11:35:30;7.80;99.90
10702;DHT22;5402;50.004;8.246;2023-04-03T11:37:57;7.70;99.90
10702;DHT22;5402;50.004;8.246;2023-04-03T11:40:28;7.80;99.90
10702;DHT22;5402;50.004;8.246;2023-04-03T11:43:05;7.80;99.90
10702;DHT22;5402;50.004;8.246;2023-04-03T11:45:37;7.70;99.90
10702;DHT22;5402;50.004;8.246;2023-04-03T11:48:48;7.60;99.90
10702;DHT22;5402;50.004;8.246;2023-04-03T11:50:57;7.70;99.90
10702;DHT22;5402;50.004;8.246;2023-04-03T11:53:34;7.80;99.90
10702;DHT22;5402;50.004;8.246;2023-04-03T11:56:30;7.60;99.90
10702;DHT22;5402;50.004;8.246;2023-04-03T11:59:19;7.60;99.90
10702;DHT22;5402;50.004;8.246;2023-04-03T12:01:53;7.70;99.90
10702;DHT22;5402;50.004;8.246;2023-04-03T12:04:23;8.10;99.90
10702;DHT22;5402;50.004;8.246;2023-04-03T12:10:20;7.90;99.90
10702;DHT22;5402;50.004;8.246;2023-04-03T12:12:58;8.20;99.90
10702;DHT22;5402;50.004;8.246;2023-04-03T12:15:54;8.20;99.90
10702;DHT22;5402;50.004;8.246;2023-04-03T12:18:54;8.10;99.90
10702;DHT22;5402;50.004;8.246;2023-04-03T12:21:24;7.90;99.90
10702;DHT22;5402;50.004;8.246;2023-04-03T12:24:24;8.00;99.90
10702;DHT22;5402;50.004;8.246;2023-04-03T12:27:05;8.00;99.90
10702;DHT22;5402;50.004;8.246;2023-04-03T12:29:35;8.00;99.90
10702;DHT22;5402;50.004;8.246;2023-04-03T12:32:11;7.90;99.90
10702;DHT22;5402;50.004;8.246;2023-04-03T12:34:58;8.00;99.90
10702;DHT22;5402;50.004;8.246;2023-04-03T12:37:51;8.00;99.90
10702;DHT22;5402;50.004;8.246;2023-04-03T12:40:26;7.90;99.90
10702;DHT22;5402;50.004;8.246;2023-04-03T12:43:10;7.90;99.90
10702;DHT22;5402;50.004;8.246;2023-04-03T12:45:48;7.90;99.90
10702;DHT22;5402;50.004;8.246;2023-04-03T12:48:25;7.80;99.90
10702;DHT22;5402;50.004;8.246;2023-04-03T12:50:52;7.80;99.90
10702;DHT22;5402;50.004;8.246;2023-04-03T12:53:23;7.90;99.90
10702;DHT22;5402;50.004;8.246;2023-04-03T12:55:54;7.90;99.90
10702;DHT22;5402;50.004;8.246;2023-04-03T12:58:24;7.90;99.90
10702;DHT22;5402;50.004;8.246;2023-04-03T13:01:03;7.90;99.90
10702;DHT22;5402;50.004;8.246;2023-04-03T13:03:31;7.90;99.80
10702;DHT22;5402;50.004;8.246;2023-04-03T13:06:00;8.00;99.90
10702;DHT22;5402;50.004;8.246;2023-04-03T13:08:30;8.10;99.90
10702;DHT22;5402;50.004;8.246;2023-04-03T13:11:01;8.10;99.90
10702;DHT22;5402;50.004;8.246;2023-04-03T13:13:29;8.10;99.80
10702;DHT22;5402;50.004;8.246;2023-04-03T13:15:56;8.10;99.90
10702;DHT22;5402;50.004;8.246;2023-04-03T13:18:28;8.50;99.90
10702;DHT22;5402;50.004;8.246;2023-04-03T13:21:00;8.20;99.50
10702;DHT22;5402;50.004;8.246;2023-04-03T13:23:30;8.20;99.90
10702;DHT22;5402;50.004;8.246;2023-04-03T13:25:58;8.30;99.90
10702;DHT22;5402;50.004;8.246;2023-04-03T13:28:30;8.40;99.90
10702;DHT22;5402;50.004;8.246;2023-04-03T13:31:06;8.30;99.50
10702;DHT22;5402;50.004;8.246;2023-04-03T13:33:36;8.30;99.70
10702;DHT22;5402;50.004;8.246;2023-04-03T13:36:06;8.30;99.70
10702;DHT22;5402;50.004;8.246;2023-04-03T13:38:36;8.40;99.30
10702;DHT22;5402;50.004;8.246;2023-04-03T13:41:05;8.50;99.30
10702;DHT22;5402;50.004;8.246;2023-04-03T13:43:35;8.30;98.70
10702;DHT22;5402;50.004;8.246;2023-04-03T13:46:20;8.20;98.30
10702;DHT22;5402;50.004;8.246;2023-04-03T13:48:49;8.10;98.80
10702;DHT22;5402;50.004;8.246;2023-04-03T13:51:22;8.20;98.80
10702;DHT22;5402;50.004;8.246;2023-04-03T13:53:52;8.10;98.30
10702;DHT22;5402;50.004;8.246;2023-04-03T13:56:26;8.10;98.40
10702;DHT22;5402;50.004;8.246;2023-04-03T14:01:44;8.30;98.30
10702;DHT22;5402;50.004;8.246;2023-04-03T14:04:16;8.40;98.60
10702;DHT22;5402;50.004;8.246;2023-04-03T14:06:44;8.20;98.20
10702;DHT22;5402;50.004;8.246;2023-04-03T14:09:13;8.30;98.50
10702;DHT22;5402;50.004;8.246;2023-04-03T14:11:40;8.30;98.30
10702;DHT22;5402;50.004;8.246;2023-04-03T14:14:12;8.30;98.40
10702;DHT22;5402;50.004;8.246;2023-04-03T14:16:42;8.40;97.80
10702;DHT22;5402;50.004;8.246;2023-04-03T14:19:17;8.30;98.40
10702;DHT22;5402;50.004;8.246;2023-04-03T14:21:44;8.40;99.00
10702;DHT22;5402;50.004;8.246;2023-04-03T14:24:14;8.40;98.30
10702;DHT22;5402;50.004;8.246;2023-04-03T14:26:42;8.50;98.20
10702;DHT22;5402;50.004;8.246;2023-04-03T14:29:10;8.60;98.70
10702;DHT22;5402;50.004;8.246;2023-04-03T14:31:39;8.60;97.80
10702;DHT22;5402;50.004;8.246;2023-04-03T14:34:06;8.50;98.20
10702;DHT22;5402;50.004;8.246;2023-04-03T14:36:33;8.50;98.10
10702;DHT22;5402;50.004;8.246;2023-04-03T14:39:00;8.50;97.80
10702;DHT22;5402;50.004;8.246;2023-04-03T14:41:28;8.70;98.60
10702;DHT22;5402;50.004;8.246;2023-04-03T14:43:56;8.40;98.30
10702;DHT22;5402;50.004;8.246;2023-04-03T14:46:26;8.60;97.70
10702;DHT22;5402;50.004;8.246;2023-04-03T14:48:55;8.50;97.00
10702;DHT22;5402;50.004;8.246;2023-04-03T14:51:22;8.40;97.50
10702;DHT22;5402;50.004;8.246;2023-04-03T14:53:49;8.40;97.30
10702;DHT22;5402;50.004;8.246;2023-04-03T14:56:19;8.30;97.50
10702;DHT22;5402;50.004;8.246;2023-04-03T14:58:49;8.50;97.90
10702;DHT22;5402;50.004;8.246;2023-04-03T15:01:17;8.40;97.40
10702;DHT22;5402;50.004;8.246;2023-04-03T15:03:44;8.50;97.50
10702;DHT22;5402;50.004;8.246;2023-04-03T15:06:11;8.40;97.50
10702;DHT22;5402;50.004;8.246;2023-04-03T15:08:39;8.60;97.60
10702;DHT22;5402;50.004;8.246;2023-04-03T15:11:08;8.40;97.10
10702;DHT22;5402;50.004;8.246;2023-04-03T15:13:35;8.50;97.20
10702;DHT22;5402;50.004;8.246;2023-04-03T15:16:04;8.50;97.30
10702;DHT22;5402;50.004;8.246;2023-04-03T15:18:35;8.30;96.80
10702;DHT22;5402;50.004;8.246;2023-04-03T15:21:04;8.30;97.30
10702;DHT22;5402;50.004;8.246;2023-04-03T15:23:31;8.60;97.70
10702;DHT22;5402;50.004;8.246;2023-04-03T15:25:58;8.40;97.00
10702;DHT22;5402;50.004;8.246;2023-04-03T15:28:30;8.30;97.30
10702;DHT22;5402;50.004;8.246;2023-04-03T15:30:59;8.20;97.50
10702;DHT22;5402;50.004;8.246;2023-04-03T15:33:28;8.30;97.40
10702;DHT22;5402;50.004;8.246;2023-04-03T15:35:54;8.30;97.50
10702;DHT22;5402;50.004;8.246;2023-04-03T15:38:22;8.30;96.80
10702;DHT22;5402;50.004;8.246;2023-04-03T15:40:51;8.30;97.10
10702;DHT22;5402;50.004;8.246;2023-04-03T15:43:18;8.60;97.00
10702;DHT22;5402;50.004;8.246;2023-04-03T15:45:48;8.40;97.20
10702;DHT22;5402;50.004;8.246;2023-04-03T15:48:16;8.40;96.60
10702;DHT22;5402;50.004;8.246;2023-04-03T15:50:46;8.50;97.30
10702;DHT22;5402;50.004;8.246;2023-04-03T15:53:14;8.30;97.50
10702;DHT22;5402;50.004;8.246;2023-04-03T15:55:41;8.20;97.30
10702;DHT22;5402;50.004;8.246;2023-04-03T15:58:09;8.20;96.70
10702;DHT22;5402;50.004;8.246;2023-04-03T16:00:37;8.30;96.80
10702;DHT22;5402;50.004;8.246;2023-04-03T16:03:08;8.30;97.40
10702;DHT22;5402;50.004;8.246;2023-04-03T16:05:38;8.30;96.30
10702;DHT22;5402;50.004;8.246;2023-04-03T16:08:07;8.20;96.30
10702;DHT22;5402;50.004;8.246;2023-04-03T16:10:36;8.20;96.60
10702;DHT22;5402;50.004;8.246;2023-04-03T16:13:04;8.20;96.60
10702;DHT22;5402;50.004;8.246;2023-04-03T16:15:32;8.10;96.70
10702;DHT22;5402;50.004;8.246;2023-04-03T16:17:59;8.30;96.70
10702;DHT22;5402;50.004;8.246;2023-04-03T16:20:26;8.20;97.20
10702;DHT22;5402;50.004;8.246;2023-04-03T16:22:57;8.30;96.80
10702;DHT22;5402;50.004;8.246;2023-04-03T16:25:27;8.30;96.70
10702;DHT22;5402;50.004;8.246;2023-04-03T16:27:55;8.30;96.80
10702;DHT22;5402;50.004;8.246;2023-04-03T16:30:21;8.30;96.90